sensor_id;sensor_type;location;lat;lon;timestamp;P1;durP1;ratioP1;P2;durP2;ratioP2
691;SDS011;328;50.086;8.576;2022-07-24T00:01:40;2.70;;;2.10;;
691;SDS011;328;50.086;8.576;2022-07-24T00:04:08;3.97;;;3.00;;
691;SDS011;328;50.086;8.576;2022-07-24T00:06:36;2.50;;;2.30;;
691;SDS011;328;50.086;8.576;2022-07-24T00:09:04;3.73;;;2.23;;
691;SDS011;328;50.086;8.576;2022-07-24T00:11:33;2.60;;;2.10;;
691;SDS011;328;50.086;8.576;2022-07-24T00:14:01;2.60;;;2.37;;
691;SDS011;328;50.086;8.576;2022-07-24T00:16:30;2.80;;;2.60;;
691;SDS011;328;50.086;8.576;2022-07-24T00:18:58;2.93;;;2.20;;
691;SDS011;328;50.086;8.576;2022-07-24T00:21:26;2.87;;;2.63;;
691;SDS011;328;50.086;8.576;2022-07-24T00:23:54;3.00;;;2.70;;
691;SDS011;328;50.086;8.576;2022-07-24T00:26:21;4.37;;;2.50;;
691;SDS011;328;50.086;8.576;2022-07-24T00:28:49;3.70;;;2.37;;
691;SDS011;328;50.086;8.576;2022-07-24T00:31:17;3.17;;;2.33;;
691;SDS011;328;50.086;8.576;2022-07-24T00:33:46;2.40;;;2.20;;
691;SDS011;328;50.086;8.576;2022-07-24T00:36:15;3.30;;;2.17;;
691;SDS011;328;50.086;8.576;2022-07-24T00:38:43;5.03;;;2.77;;
691;SDS011;328;50.086;8.576;2022-07-24T00:41:11;2.80;;;2.17;;
691;SDS011;328;50.086;8.576;2022-07-24T00:46:25;2.20;;;2.00;;
691;SDS011;328;50.086;8.576;2022-07-24T00:48:54;2.80;;;2.50;;
691;SDS011;328;50.086;8.576;2022-07-24T00:51:22;3.47;;;2.50;;
691;SDS011;328;50.086;8.576;2022-07-24T00:53:50;2.40;;;2.20;;
691;SDS011;328;50.086;8.576;2022-07-24T00:56:18;2.80;;;2.30;;
691;SDS011;328;50.086;8.576;2022-07-24T00:58:46;2.90;;;2.70;;
691;SDS011;328;50.086;8.576;2022-07-24T01:01:13;3.10;;;2.80;;
691;SDS011;328;50.086;8.576;2022-07-24T01:03:41;2.60;;;2.30;;
691;SDS011;328;50.086;8.576;2022-07-24T01:06:10;4.03;;;2.90;;
691;SDS011;328;50.086;8.576;2022-07-24T01:08:38;2.50;;;2.27;;
691;SDS011;328;50.086;8.576;2022-07-24T01:11:05;2.27;;;1.93;;
691;SDS011;328;50.086;8.576;2022-07-24T01:13:33;2.27;;;2.03;;
691;SDS011;328;50.086;8.576;2022-07-24T01:16:01;4.30;;;2.33;;
691;SDS011;328;50.086;8.576;2022-07-24T01:18:28;2.47;;;2.13;;
691;SDS011;328;50.086;8.576;2022-07-24T01:20:57;3.00;;;2.30;;
691;SDS011;328;50.086;8.576;2022-07-24T01:23:25;3.37;;;2.43;;
691;SDS011;328;50.086;8.576;2022-07-24T01:25:52;3.67;;;2.53;;
691;SDS011;328;50.086;8.576;2022-07-24T01:28:21;3.73;;;2.77;;
691;SDS011;328;50.086;8.576;2022-07-24T01:30:49;3.33;;;2.67;;
691;SDS011;328;50.086;8.576;2022-07-24T01:33:17;3.90;;;2.70;;
691;SDS011;328;50.086;8.576;2022-07-24T01:35:45;2.30;;;2.10;;
691;SDS011;328;50.086;8.576;2022-07-24T01:38:13;2.40;;;2.20;;
691;SDS011;328;50.086;8.576;2022-07-24T01:40:41;3.30;;;2.30;;
691;SDS011;328;50.086;8.576;2022-07-24T01:43:09;4.70;;;2.30;;
691;SDS011;328;50.086;8.576;2022-07-24T01:45:36;3.90;;;2.60;;
691;SDS011;328;50.086;8.576;2022-07-24T01:48:04;2.00;;;1.80;;
691;SDS011;328;50.086;8.576;2022-07-24T01:50:32;2.63;;;2.40;;
691;SDS011;328;50.086;8.576;2022-07-24T01:52:59;3.10;;;2.43;;
691;SDS011;328;50.086;8.576;2022-07-24T01:55:29;2.87;;;2.67;;
691;SDS011;328;50.086;8.576;2022-07-24T01:57:57;3.43;;;3.00;;
691;SDS011;328;50.086;8.576;2022-07-24T02:00:24;3.30;;;2.90;;
691;SDS011;328;50.086;8.576;2022-07-24T02:02:52;2.77;;;2.17;;
691;SDS011;328;50.086;8.576;2022-07-24T02:05:20;3.37;;;2.70;;
691;SDS011;328;50.086;8.576;2022-07-24T02:07:53;3.13;;;2.27;;
691;SDS011;328;50.086;8.576;2022-07-24T02:10:22;3.17;;;2.63;;
691;SDS011;328;50.086;8.576;2022-07-24T02:12:51;2.53;;;2.33;;
691;SDS011;328;50.086;8.576;2022-07-24T02:15:19;5.50;;;5.10;;
691;SDS011;328;50.086;8.576;2022-07-24T02:17:47;2.30;;;2.10;;
691;SDS011;328;50.086;8.576;2022-07-24T02:20:15;3.43;;;2.60;;
691;SDS011;328;50.086;8.576;2022-07-24T02:22:43;2.37;;;2.17;;
691;SDS011;328;50.086;8.576;2022-07-24T02:25:11;3.47;;;2.57;;
691;SDS011;328;50.086;8.576;2022-07-24T02:27:38;3.73;;;2.43;;
691;SDS011;328;50.086;8.576;2022-07-24T02:30:08;3.50;;;2.50;;
691;SDS011;328;50.086;8.576;2022-07-24T02:32:37;2.70;;;2.40;;
691;SDS011;328;50.086;8.576;2022-07-24T02:35:05;3.20;;;2.60;;
691;SDS011;328;50.086;8.576;2022-07-24T02:37:34;3.93;;;2.53;;
691;SDS011;328;50.086;8.576;2022-07-24T02:40:03;3.77;;;2.43;;
691;SDS011;328;50.086;8.576;2022-07-24T02:42:31;2.40;;;2.20;;
691;SDS011;328;50.086;8.576;2022-07-24T02:44:59;2.47;;;2.17;;
691;SDS011;328;50.086;8.576;2022-07-24T02:47:27;3.33;;;2.37;;
691;SDS011;328;50.086;8.576;2022-07-24T02:49:55;3.23;;;2.10;;
691;SDS011;328;50.086;8.576;2022-07-24T02:52:23;2.93;;;2.60;;
691;SDS011;328;50.086;8.576;2022-07-24T02:54:50;2.63;;;2.30;;
691;SDS011;328;50.086;8.576;2022-07-24T02:57:19;2.50;;;2.03;;
691;SDS011;328;50.086;8.576;2022-07-24T02:59:46;2.37;;;2.17;;
691;SDS011;328;50.086;8.576;2022-07-24T03:02:18;2.70;;;2.30;;
691;SDS011;328;50.086;8.576;2022-07-24T03:04:47;2.30;;;2.10;;
691;SDS011;328;50.086;8.576;2022-07-24T03:07:15;3.20;;;2.80;;
691;SDS011;328;50.086;8.576;2022-07-24T03:09:42;3.00;;;2.70;;
691;SDS011;328;50.086;8.576;2022-07-24T03:12:10;4.83;;;2.93;;
691;SDS011;328;50.086;8.576;2022-07-24T03:14:37;2.53;;;2.10;;
691;SDS011;328;50.086;8.576;2022-07-24T03:17:05;3.73;;;2.10;;
691;SDS011;328;50.086;8.576;2022-07-24T03:19:32;4.93;;;2.80;;
691;SDS011;328;50.086;8.576;2022-07-24T03:22:01;2.87;;;2.40;;
691;SDS011;328;50.086;8.576;2022-07-24T03:24:29;2.60;;;2.40;;
691;SDS011;328;50.086;8.576;2022-07-24T03:26:56;3.00;;;2.70;;
691;SDS011;328;50.086;8.576;2022-07-24T03:29:24;4.03;;;3.20;;
691;SDS011;328;50.086;8.576;2022-07-24T03:31:51;6.13;;;3.00;;
691;SDS011;328;50.086;8.576;2022-07-24T03:34:19;3.20;;;2.53;;
691;SDS011;328;50.086;8.576;2022-07-24T03:36:46;3.00;;;2.70;;
691;SDS011;328;50.086;8.576;2022-07-24T03:39:15;3.47;;;2.93;;
691;SDS011;328;50.086;8.576;2022-07-24T03:41:43;5.97;;;2.70;;
691;SDS011;328;50.086;8.576;2022-07-24T03:44:11;4.30;;;2.83;;
691;SDS011;328;50.086;8.576;2022-07-24T03:46:38;5.07;;;2.83;;
691;SDS011;328;50.086;8.576;2022-07-24T03:49:06;2.83;;;2.30;;
691;SDS011;328;50.086;8.576;2022-07-24T03:51:35;2.90;;;2.60;;
691;SDS011;328;50.086;8.576;2022-07-24T03:54:03;3.07;;;2.70;;
691;SDS011;328;50.086;8.576;2022-07-24T03:56:32;3.43;;;2.53;;
691;SDS011;328;50.086;8.576;2022-07-24T03:58:59;3.33;;;2.57;;
691;SDS011;328;50.086;8.576;2022-07-24T04:01:28;4.00;;;2.53;;
691;SDS011;328;50.086;8.576;2022-07-24T04:03:55;3.13;;;2.93;;
691;SDS011;328;50.086;8.576;2022-07-24T04:06:24;4.73;;;2.40;;
691;SDS011;328;50.086;8.576;2022-07-24T04:08:51;4.23;;;3.20;;
691;SDS011;328;50.086;8.576;2022-07-24T04:11:19;3.90;;;3.30;;
691;SDS011;328;50.086;8.576;2022-07-24T04:13:48;3.20;;;2.87;;
691;SDS011;328;50.086;8.576;2022-07-24T04:16:15;3.40;;;3.10;;
691;SDS011;328;50.086;8.576;2022-07-24T04:18:43;3.10;;;2.80;;
691;SDS011;328;50.086;8.576;2022-07-24T04:21:10;2.70;;;2.50;;
691;SDS011;328;50.086;8.576;2022-07-24T04:23:38;2.50;;;2.20;;
691;SDS011;328;50.086;8.576;2022-07-24T04:26:05;5.00;;;2.90;;
691;SDS011;328;50.086;8.576;2022-07-24T04:28:33;3.30;;;2.73;;
691;SDS011;328;50.086;8.576;2022-07-24T04:31:02;4.00;;;2.70;;
691;SDS011;328;50.086;8.576;2022-07-24T04:33:30;3.47;;;2.47;;
691;SDS011;328;50.086;8.576;2022-07-24T04:35:58;3.40;;;3.10;;
691;SDS011;328;50.086;8.576;2022-07-24T04:38:25;3.33;;;3.00;;
691;SDS011;328;50.086;8.576;2022-07-24T04:40:53;3.40;;;2.77;;
691;SDS011;328;50.086;8.576;2022-07-24T04:43:20;3.17;;;2.80;;
691;SDS011;328;50.086;8.576;2022-07-24T04:45:48;3.20;;;2.90;;
691;SDS011;328;50.086;8.576;2022-07-24T04:48:17;3.30;;;2.77;;
691;SDS011;328;50.086;8.576;2022-07-24T04:50:44;4.57;;;2.90;;
691;SDS011;328;50.086;8.576;2022-07-24T04:53:12;3.40;;;2.77;;
691;SDS011;328;50.086;8.576;2022-07-24T04:55:39;2.93;;;2.63;;
691;SDS011;328;50.086;8.576;2022-07-24T04:58:07;2.93;;;2.63;;
691;SDS011;328;50.086;8.576;2022-07-24T05:00:34;3.50;;;3.20;;
691;SDS011;328;50.086;8.576;2022-07-24T05:03:02;2.90;;;2.60;;
691;SDS011;328;50.086;8.576;2022-07-24T05:05:31;3.03;;;2.73;;
691;SDS011;328;50.086;8.576;2022-07-24T05:07:59;3.50;;;3.20;;
691;SDS011;328;50.086;8.576;2022-07-24T05:10:26;3.13;;;2.83;;
691;SDS011;328;50.086;8.576;2022-07-24T05:12:54;3.10;;;2.80;;
691;SDS011;328;50.086;8.576;2022-07-24T05:15:28;3.27;;;2.83;;
691;SDS011;328;50.086;8.576;2022-07-24T05:17:56;3.07;;;2.80;;
691;SDS011;328;50.086;8.576;2022-07-24T05:20:23;2.70;;;2.50;;
691;SDS011;328;50.086;8.576;2022-07-24T05:22:52;3.67;;;3.37;;
691;SDS011;328;50.086;8.576;2022-07-24T05:25:20;6.17;;;2.47;;
691;SDS011;328;50.086;8.576;2022-07-24T05:27:47;4.00;;;2.60;;
691;SDS011;328;50.086;8.576;2022-07-24T05:30:15;3.20;;;2.90;;
691;SDS011;328;50.086;8.576;2022-07-24T05:32:43;3.90;;;2.57;;
691;SDS011;328;50.086;8.576;2022-07-24T05:35:10;3.00;;;2.73;;
691;SDS011;328;50.086;8.576;2022-07-24T05:37:38;3.53;;;2.63;;
691;SDS011;328;50.086;8.576;2022-07-24T05:40:07;4.80;;;2.93;;
691;SDS011;328;50.086;8.576;2022-07-24T05:42:35;3.27;;;2.70;;
691;SDS011;328;50.086;8.576;2022-07-24T05:45:03;4.07;;;3.23;;
691;SDS011;328;50.086;8.576;2022-07-24T05:47:34;2.50;;;2.30;;
691;SDS011;328;50.086;8.576;2022-07-24T05:50:03;3.47;;;3.00;;
691;SDS011;328;50.086;8.576;2022-07-24T05:52:33;4.57;;;3.23;;
691;SDS011;328;50.086;8.576;2022-07-24T05:55:00;3.77;;;3.33;;
691;SDS011;328;50.086;8.576;2022-07-24T05:57:29;3.50;;;2.70;;
691;SDS011;328;50.086;8.576;2022-07-24T05:59:57;3.57;;;2.97;;
691;SDS011;328;50.086;8.576;2022-07-24T06:02:26;5.20;;;2.90;;
691;SDS011;328;50.086;8.576;2022-07-24T06:04:54;2.87;;;2.60;;
691;SDS011;328;50.086;8.576;2022-07-24T06:07:21;3.83;;;2.60;;
691;SDS011;328;50.086;8.576;2022-07-24T06:09:49;2.70;;;2.50;;
691;SDS011;328;50.086;8.576;2022-07-24T06:12:18;3.30;;;2.73;;
691;SDS011;328;50.086;8.576;2022-07-24T06:14:47;3.47;;;2.87;;
691;SDS011;328;50.086;8.576;2022-07-24T06:17:15;2.60;;;2.37;;
691;SDS011;328;50.086;8.576;2022-07-24T06:19:43;3.23;;;2.50;;
691;SDS011;328;50.086;8.576;2022-07-24T06:22:10;3.00;;;2.70;;
691;SDS011;328;50.086;8.576;2022-07-24T06:24:38;2.30;;;2.10;;
691;SDS011;328;50.086;8.576;2022-07-24T06:27:05;3.97;;;2.63;;
691;SDS011;328;50.086;8.576;2022-07-24T06:29:38;3.10;;;2.80;;
691;SDS011;328;50.086;8.576;2022-07-24T06:32:07;4.47;;;2.50;;
691;SDS011;328;50.086;8.576;2022-07-24T06:34:34;5.40;;;2.70;;
691;SDS011;328;50.086;8.576;2022-07-24T06:37:02;3.00;;;2.20;;
691;SDS011;328;50.086;8.576;2022-07-24T06:39:32;2.60;;;2.40;;
691;SDS011;328;50.086;8.576;2022-07-24T06:41:59;3.47;;;2.70;;
691;SDS011;328;50.086;8.576;2022-07-24T06:44:27;3.40;;;2.60;;
691;SDS011;328;50.086;8.576;2022-07-24T06:46:54;2.90;;;2.70;;
691;SDS011;328;50.086;8.576;2022-07-24T06:49:23;2.97;;;2.70;;
691;SDS011;328;50.086;8.576;2022-07-24T06:51:51;4.13;;;3.73;;
691;SDS011;328;50.086;8.576;2022-07-24T06:54:20;3.10;;;2.80;;
691;SDS011;328;50.086;8.576;2022-07-24T06:56:47;3.03;;;2.63;;
691;SDS011;328;50.086;8.576;2022-07-24T06:59:17;3.67;;;2.80;;
691;SDS011;328;50.086;8.576;2022-07-24T07:01:45;3.30;;;2.70;;
691;SDS011;328;50.086;8.576;2022-07-24T07:04:13;5.07;;;3.83;;
691;SDS011;328;50.086;8.576;2022-07-24T07:06:41;5.23;;;4.07;;
691;SDS011;328;50.086;8.576;2022-07-24T07:09:09;4.20;;;2.90;;
691;SDS011;328;50.086;8.576;2022-07-24T07:11:37;3.23;;;2.93;;
691;SDS011;328;50.086;8.576;2022-07-24T07:14:05;2.77;;;2.47;;
691;SDS011;328;50.086;8.576;2022-07-24T07:16:32;6.73;;;3.30;;
691;SDS011;328;50.086;8.576;2022-07-24T07:19:00;3.20;;;2.67;;
691;SDS011;328;50.086;8.576;2022-07-24T07:21:28;3.37;;;3.07;;
691;SDS011;328;50.086;8.576;2022-07-24T07:23:57;2.93;;;2.63;;
691;SDS011;328;50.086;8.576;2022-07-24T07:26:24;5.73;;;3.77;;
691;SDS011;328;50.086;8.576;2022-07-24T07:28:52;2.97;;;2.77;;
691;SDS011;328;50.086;8.576;2022-07-24T07:31:19;3.10;;;2.80;;
691;SDS011;328;50.086;8.576;2022-07-24T07:33:47;3.00;;;2.60;;
691;SDS011;328;50.086;8.576;2022-07-24T07:36:15;2.53;;;2.33;;
691;SDS011;328;50.086;8.576;2022-07-24T07:38:42;5.40;;;4.90;;
691;SDS011;328;50.086;8.576;2022-07-24T07:41:12;4.17;;;3.70;;
691;SDS011;328;50.086;8.576;2022-07-24T07:43:39;4.10;;;3.20;;
691;SDS011;328;50.086;8.576;2022-07-24T07:46:08;3.73;;;2.10;;
691;SDS011;328;50.086;8.576;2022-07-24T07:48:35;2.70;;;2.43;;
691;SDS011;328;50.086;8.576;2022-07-24T07:51:03;2.90;;;2.70;;
691;SDS011;328;50.086;8.576;2022-07-24T07:53:30;7.43;;;5.33;;
691;SDS011;328;50.086;8.576;2022-07-24T07:55:58;3.10;;;2.73;;
691;SDS011;328;50.086;8.576;2022-07-24T07:58:28;3.80;;;2.43;;
691;SDS011;328;50.086;8.576;2022-07-24T08:00:56;3.30;;;3.00;;
691;SDS011;328;50.086;8.576;2022-07-24T08:03:23;3.67;;;3.37;;
691;SDS011;328;50.086;8.576;2022-07-24T08:05:51;3.90;;;2.90;;
691;SDS011;328;50.086;8.576;2022-07-24T08:08:24;17.70;;;14.37;;
691;SDS011;328;50.086;8.576;2022-07-24T08:10:52;3.73;;;3.43;;
691;SDS011;328;50.086;8.576;2022-07-24T08:13:19;3.70;;;3.30;;
691;SDS011;328;50.086;8.576;2022-07-24T08:15:48;3.57;;;3.17;;
691;SDS011;328;50.086;8.576;2022-07-24T08:18:16;3.43;;;3.13;;
691;SDS011;328;50.086;8.576;2022-07-24T08:20:43;2.53;;;2.33;;
691;SDS011;328;50.086;8.576;2022-07-24T08:23:11;2.87;;;2.57;;
691;SDS011;328;50.086;8.576;2022-07-24T08:25:38;3.10;;;2.80;;
691;SDS011;328;50.086;8.576;2022-07-24T08:28:06;3.30;;;2.93;;
691;SDS011;328;50.086;8.576;2022-07-24T08:30:33;3.80;;;3.33;;
691;SDS011;328;50.086;8.576;2022-07-24T08:33:02;2.97;;;2.67;;
691;SDS011;328;50.086;8.576;2022-07-24T08:35:30;3.93;;;3.53;;
691;SDS011;328;50.086;8.576;2022-07-24T08:37:59;4.77;;;3.33;;
691;SDS011;328;50.086;8.576;2022-07-24T08:40:29;4.07;;;3.27;;
691;SDS011;328;50.086;8.576;2022-07-24T08:42:59;3.23;;;2.90;;
691;SDS011;328;50.086;8.576;2022-07-24T08:45:27;6.90;;;2.83;;
691;SDS011;328;50.086;8.576;2022-07-24T08:47:55;5.10;;;3.53;;
691;SDS011;328;50.086;8.576;2022-07-24T08:50:24;2.63;;;2.43;;
691;SDS011;328;50.086;8.576;2022-07-24T08:52:52;3.77;;;3.37;;
691;SDS011;328;50.086;8.576;2022-07-24T08:55:19;3.60;;;3.30;;
691;SDS011;328;50.086;8.576;2022-07-24T08:57:47;5.03;;;3.03;;
691;SDS011;328;50.086;8.576;2022-07-24T09:00:15;3.50;;;3.10;;
691;SDS011;328;50.086;8.576;2022-07-24T09:02:43;3.47;;;3.17;;
691;SDS011;328;50.086;8.576;2022-07-24T09:05:12;3.87;;;3.50;;
691;SDS011;328;50.086;8.576;2022-07-24T09:07:41;3.63;;;3.33;;
691;SDS011;328;50.086;8.576;2022-07-24T09:10:09;3.87;;;3.57;;
691;SDS011;328;50.086;8.576;2022-07-24T09:12:38;3.50;;;2.60;;
691;SDS011;328;50.086;8.576;2022-07-24T09:15:12;4.13;;;3.07;;
691;SDS011;328;50.086;8.576;2022-07-24T09:17:47;5.87;;;3.17;;
691;SDS011;328;50.086;8.576;2022-07-24T09:20:16;4.00;;;3.60;;
691;SDS011;328;50.086;8.576;2022-07-24T09:22:45;3.83;;;3.53;;
691;SDS011;328;50.086;8.576;2022-07-24T09:25:13;3.83;;;3.10;;
691;SDS011;328;50.086;8.576;2022-07-24T09:27:45;3.57;;;3.10;;
691;SDS011;328;50.086;8.576;2022-07-24T09:30:21;4.40;;;3.47;;
691;SDS011;328;50.086;8.576;2022-07-24T09:32:51;2.87;;;2.67;;
691;SDS011;328;50.086;8.576;2022-07-24T09:35:21;4.03;;;3.13;;
691;SDS011;328;50.086;8.576;2022-07-24T09:37:55;4.10;;;3.40;;
691;SDS011;328;50.086;8.576;2022-07-24T09:40:27;5.80;;;3.10;;
691;SDS011;328;50.086;8.576;2022-07-24T09:42:57;4.53;;;3.40;;
691;SDS011;328;50.086;8.576;2022-07-24T09:45:53;3.77;;;3.00;;
691;SDS011;328;50.086;8.576;2022-07-24T09:48:23;3.20;;;2.90;;
691;SDS011;328;50.086;8.576;2022-07-24T09:50:51;3.60;;;3.30;;
691;SDS011;328;50.086;8.576;2022-07-24T09:53:22;3.30;;;3.00;;
691;SDS011;328;50.086;8.576;2022-07-24T09:55:57;3.40;;;3.10;;
691;SDS011;328;50.086;8.576;2022-07-24T09:58:26;3.43;;;3.13;;
691;SDS011;328;50.086;8.576;2022-07-24T10:00:55;3.37;;;3.07;;
691;SDS011;328;50.086;8.576;2022-07-24T10:03:25;3.90;;;3.50;;
691;SDS011;328;50.086;8.576;2022-07-24T10:05:54;3.40;;;3.10;;
691;SDS011;328;50.086;8.576;2022-07-24T10:08:24;4.10;;;3.80;;
691;SDS011;328;50.086;8.576;2022-07-24T10:10:52;3.83;;;3.43;;
691;SDS011;328;50.086;8.576;2022-07-24T10:13:23;3.77;;;3.47;;
691;SDS011;328;50.086;8.576;2022-07-24T10:16:01;3.50;;;3.20;;
691;SDS011;328;50.086;8.576;2022-07-24T10:18:37;3.50;;;3.20;;
691;SDS011;328;50.086;8.576;2022-07-24T10:21:15;3.70;;;3.33;;
691;SDS011;328;50.086;8.576;2022-07-24T10:23:51;4.00;;;3.60;;
691;SDS011;328;50.086;8.576;2022-07-24T10:26:33;5.60;;;3.77;;
691;SDS011;328;50.086;8.576;2022-07-24T10:29:04;3.93;;;3.63;;
691;SDS011;328;50.086;8.576;2022-07-24T10:31:34;4.40;;;4.00;;
691;SDS011;328;50.086;8.576;2022-07-24T10:34:03;4.10;;;3.67;;
691;SDS011;328;50.086;8.576;2022-07-24T10:36:34;4.47;;;4.00;;
691;SDS011;328;50.086;8.576;2022-07-24T10:39:16;4.37;;;3.97;;
691;SDS011;328;50.086;8.576;2022-07-24T10:41:59;3.80;;;3.23;;
691;SDS011;328;50.086;8.576;2022-07-24T10:44:27;4.10;;;3.63;;
691;SDS011;328;50.086;8.576;2022-07-24T10:47:02;4.20;;;3.67;;
691;SDS011;328;50.086;8.576;2022-07-24T10:49:39;6.13;;;4.47;;
691;SDS011;328;50.086;8.576;2022-07-24T10:52:12;10.40;;;4.93;;
691;SDS011;328;50.086;8.576;2022-07-24T10:58:02;3.90;;;3.60;;
691;SDS011;328;50.086;8.576;2022-07-24T11:00:31;4.43;;;4.03;;
691;SDS011;328;50.086;8.576;2022-07-24T11:03:07;4.07;;;3.63;;
691;SDS011;328;50.086;8.576;2022-07-24T11:05:36;4.23;;;3.80;;
691;SDS011;328;50.086;8.576;2022-07-24T11:08:26;4.03;;;3.73;;
691;SDS011;328;50.086;8.576;2022-07-24T11:11:05;3.53;;;3.23;;
691;SDS011;328;50.086;8.576;2022-07-24T11:13:41;4.43;;;3.97;;
691;SDS011;328;50.086;8.576;2022-07-24T11:22:01;4.03;;;3.60;;
691;SDS011;328;50.086;8.576;2022-07-24T11:24:33;5.43;;;4.27;;
691;SDS011;328;50.086;8.576;2022-07-24T11:27:06;5.10;;;3.70;;
691;SDS011;328;50.086;8.576;2022-07-24T11:29:35;4.60;;;4.20;;
691;SDS011;328;50.086;8.576;2022-07-24T11:32:04;4.87;;;4.47;;
691;SDS011;328;50.086;8.576;2022-07-24T11:34:42;6.70;;;4.30;;
691;SDS011;328;50.086;8.576;2022-07-24T11:37:11;4.70;;;4.30;;
691;SDS011;328;50.086;8.576;2022-07-24T11:39:39;6.43;;;3.90;;
691;SDS011;328;50.086;8.576;2022-07-24T11:42:10;4.57;;;4.17;;
691;SDS011;328;50.086;8.576;2022-07-24T11:44:39;4.60;;;4.10;;
691;SDS011;328;50.086;8.576;2022-07-24T11:47:08;5.40;;;3.93;;
691;SDS011;328;50.086;8.576;2022-07-24T11:49:41;6.80;;;4.63;;
691;SDS011;328;50.086;8.576;2022-07-24T11:52:13;4.37;;;3.97;;
691;SDS011;328;50.086;8.576;2022-07-24T11:54:42;4.33;;;4.03;;
691;SDS011;328;50.086;8.576;2022-07-24T11:57:19;4.10;;;3.70;;
691;SDS011;328;50.086;8.576;2022-07-24T12:00:08;4.17;;;3.87;;
691;SDS011;328;50.086;8.576;2022-07-24T12:02:41;4.57;;;4.17;;
691;SDS011;328;50.086;8.576;2022-07-24T12:05:10;4.60;;;4.20;;
691;SDS011;328;50.086;8.576;2022-07-24T12:07:37;5.70;;;5.20;;
691;SDS011;328;50.086;8.576;2022-07-24T12:10:05;4.27;;;3.90;;
691;SDS011;328;50.086;8.576;2022-07-24T12:12:35;5.10;;;4.70;;
691;SDS011;328;50.086;8.576;2022-07-24T12:15:06;5.10;;;4.30;;
691;SDS011;328;50.086;8.576;2022-07-24T12:17:53;4.40;;;4.00;;
691;SDS011;328;50.086;8.576;2022-07-24T12:20:26;4.23;;;3.83;;
691;SDS011;328;50.086;8.576;2022-07-24T12:22:54;4.50;;;4.00;;
691;SDS011;328;50.086;8.576;2022-07-24T12:25:22;5.00;;;4.60;;
691;SDS011;328;50.086;8.576;2022-07-24T12:28:00;4.77;;;4.37;;
691;SDS011;328;50.086;8.576;2022-07-24T12:30:29;6.07;;;5.47;;
691;SDS011;328;50.086;8.576;2022-07-24T12:32:59;5.03;;;4.60;;
691;SDS011;328;50.086;8.576;2022-07-24T12:35:28;4.70;;;4.30;;
691;SDS011;328;50.086;8.576;2022-07-24T12:37:57;4.23;;;3.80;;
691;SDS011;328;50.086;8.576;2022-07-24T12:40:30;4.47;;;4.07;;
691;SDS011;328;50.086;8.576;2022-07-24T12:43:02;5.00;;;4.43;;
691;SDS011;328;50.086;8.576;2022-07-24T12:45:31;5.20;;;4.70;;
691;SDS011;328;50.086;8.576;2022-07-24T12:48:06;4.43;;;4.07;;
691;SDS011;328;50.086;8.576;2022-07-24T12:50:38;5.10;;;4.60;;
691;SDS011;328;50.086;8.576;2022-07-24T12:53:22;4.63;;;4.20;;
691;SDS011;328;50.086;8.576;2022-07-24T12:55:59;4.40;;;4.00;;
691;SDS011;328;50.086;8.576;2022-07-24T12:58:29;4.70;;;4.20;;
691;SDS011;328;50.086;8.576;2022-07-24T13:00:57;5.03;;;4.63;;
691;SDS011;328;50.086;8.576;2022-07-24T13:03:26;5.00;;;4.20;;
691;SDS011;328;50.086;8.576;2022-07-24T13:05:55;8.10;;;5.00;;
691;SDS011;328;50.086;8.576;2022-07-24T13:08:22;4.73;;;4.23;;
691;SDS011;328;50.086;8.576;2022-07-24T13:10:50;5.17;;;4.77;;
691;SDS011;328;50.086;8.576;2022-07-24T13:13:18;5.80;;;4.13;;
691;SDS011;328;50.086;8.576;2022-07-24T13:15:46;4.70;;;4.13;;
691;SDS011;328;50.086;8.576;2022-07-24T13:18:14;4.43;;;4.03;;
691;SDS011;328;50.086;8.576;2022-07-24T13:20:42;4.30;;;3.90;;
691;SDS011;328;50.086;8.576;2022-07-24T13:23:10;3.87;;;3.43;;
691;SDS011;328;50.086;8.576;2022-07-24T13:25:38;4.87;;;4.40;;
691;SDS011;328;50.086;8.576;2022-07-24T13:28:08;5.53;;;5.03;;
691;SDS011;328;50.086;8.576;2022-07-24T13:30:39;3.80;;;3.50;;
691;SDS011;328;50.086;8.576;2022-07-24T13:33:08;4.33;;;3.93;;
691;SDS011;328;50.086;8.576;2022-07-24T13:35:35;4.63;;;4.10;;
691;SDS011;328;50.086;8.576;2022-07-24T13:38:03;3.80;;;3.50;;
691;SDS011;328;50.086;8.576;2022-07-24T13:40:31;4.17;;;3.27;;
691;SDS011;328;50.086;8.576;2022-07-24T13:43:00;4.10;;;3.70;;
691;SDS011;328;50.086;8.576;2022-07-24T13:45:28;5.27;;;4.37;;
691;SDS011;328;50.086;8.576;2022-07-24T13:47:55;4.23;;;3.83;;
691;SDS011;328;50.086;8.576;2022-07-24T13:50:24;4.07;;;3.70;;
691;SDS011;328;50.086;8.576;2022-07-24T13:52:52;4.63;;;4.30;;
691;SDS011;328;50.086;8.576;2022-07-24T13:55:20;4.73;;;3.90;;
691;SDS011;328;50.086;8.576;2022-07-24T13:57:47;4.40;;;3.60;;
691;SDS011;328;50.086;8.576;2022-07-24T14:00:15;5.30;;;4.07;;
691;SDS011;328;50.086;8.576;2022-07-24T14:02:44;3.83;;;3.53;;
691;SDS011;328;50.086;8.576;2022-07-24T14:05:11;3.93;;;3.63;;
691;SDS011;328;50.086;8.576;2022-07-24T14:07:40;4.20;;;3.80;;
691;SDS011;328;50.086;8.576;2022-07-24T14:10:08;4.00;;;3.57;;
691;SDS011;328;50.086;8.576;2022-07-24T14:12:36;3.83;;;3.53;;
691;SDS011;328;50.086;8.576;2022-07-24T14:15:04;4.23;;;3.20;;
691;SDS011;328;50.086;8.576;2022-07-24T14:17:32;3.30;;;3.00;;
691;SDS011;328;50.086;8.576;2022-07-24T14:20:06;3.87;;;3.30;;
691;SDS011;328;50.086;8.576;2022-07-24T14:22:34;4.13;;;3.73;;
691;SDS011;328;50.086;8.576;2022-07-24T14:25:04;4.80;;;4.00;;
691;SDS011;328;50.086;8.576;2022-07-24T14:27:33;6.07;;;3.90;;
691;SDS011;328;50.086;8.576;2022-07-24T14:30:01;4.00;;;3.60;;
691;SDS011;328;50.086;8.576;2022-07-24T14:32:29;3.97;;;3.63;;
691;SDS011;328;50.086;8.576;2022-07-24T14:34:56;3.67;;;3.37;;
691;SDS011;328;50.086;8.576;2022-07-24T14:37:24;25.33;;;22.83;;
691;SDS011;328;50.086;8.576;2022-07-24T14:39:51;18.20;;;16.37;;
691;SDS011;328;50.086;8.576;2022-07-24T14:42:20;20.40;;;18.10;;
691;SDS011;328;50.086;8.576;2022-07-24T14:44:48;20.63;;;18.43;;
691;SDS011;328;50.086;8.576;2022-07-24T14:47:15;10.73;;;9.60;;
691;SDS011;328;50.086;8.576;2022-07-24T14:49:43;17.80;;;16.10;;
691;SDS011;328;50.086;8.576;2022-07-24T14:52:11;27.13;;;24.40;;
691;SDS011;328;50.086;8.576;2022-07-24T14:54:39;4.27;;;3.87;;
691;SDS011;328;50.086;8.576;2022-07-24T14:57:07;5.53;;;5.03;;
691;SDS011;328;50.086;8.576;2022-07-24T14:59:36;13.23;;;11.90;;
691;SDS011;328;50.086;8.576;2022-07-24T15:02:03;15.87;;;13.30;;
691;SDS011;328;50.086;8.576;2022-07-24T15:04:34;7.60;;;6.67;;
691;SDS011;328;50.086;8.576;2022-07-24T15:07:02;9.97;;;9.07;;
691;SDS011;328;50.086;8.576;2022-07-24T15:09:29;7.10;;;6.40;;
691;SDS011;328;50.086;8.576;2022-07-24T15:11:57;6.87;;;6.20;;
691;SDS011;328;50.086;8.576;2022-07-24T15:14:24;10.00;;;9.00;;
691;SDS011;328;50.086;8.576;2022-07-24T15:16:53;14.50;;;12.87;;
691;SDS011;328;50.086;8.576;2022-07-24T15:19:21;24.80;;;22.40;;
691;SDS011;328;50.086;8.576;2022-07-24T15:21:48;6.03;;;5.43;;
691;SDS011;328;50.086;8.576;2022-07-24T15:24:16;13.53;;;12.13;;
691;SDS011;328;50.086;8.576;2022-07-24T15:26:48;44.37;;;39.93;;
691;SDS011;328;50.086;8.576;2022-07-24T15:29:16;18.87;;;16.93;;
691;SDS011;328;50.086;8.576;2022-07-24T15:31:45;15.57;;;13.90;;
691;SDS011;328;50.086;8.576;2022-07-24T15:34:15;11.87;;;10.70;;
691;SDS011;328;50.086;8.576;2022-07-24T15:36:42;5.77;;;5.27;;
691;SDS011;328;50.086;8.576;2022-07-24T15:39:11;34.80;;;31.27;;
691;SDS011;328;50.086;8.576;2022-07-24T15:41:39;8.57;;;7.00;;
691;SDS011;328;50.086;8.576;2022-07-24T15:44:07;13.57;;;12.30;;
691;SDS011;328;50.086;8.576;2022-07-24T15:46:35;13.23;;;11.23;;
691;SDS011;328;50.086;8.576;2022-07-24T15:49:04;19.60;;;17.73;;
691;SDS011;328;50.086;8.576;2022-07-24T15:51:34;21.50;;;19.20;;
691;SDS011;328;50.086;8.576;2022-07-24T15:54:02;24.87;;;22.37;;
691;SDS011;328;50.086;8.576;2022-07-24T15:56:30;13.03;;;11.77;;
691;SDS011;328;50.086;8.576;2022-07-24T15:58:58;11.30;;;10.17;;
691;SDS011;328;50.086;8.576;2022-07-24T16:01:26;8.70;;;7.80;;
691;SDS011;328;50.086;8.576;2022-07-24T16:04:10;6.30;;;5.20;;
691;SDS011;328;50.086;8.576;2022-07-24T16:06:40;6.23;;;5.27;;